KMWO/MWO METAR and TAF weather

Enter ICAO airport designator
Station Type Date Time Source
KMWO METAR 2021/03/03 02:55 UTC NOAA

KMWO 030255Z AUTO 00000KT 10SM CLR M02/M06 A3013 RMK AO2 T10221056


Station Type Date Time Source
KMWO Decoded METAR 2021/03/03 02:55 UTC NOAA

Station name not available
Mar 02, 2021 - 09:55 PM EST / 2021.03.03 0255 UTC
Wind: Calm:0
Visibility: 10 mile(s):0
Sky conditions: clear
Temperature: 28.0 F (-2.2 C)
Dew Point: 21.9 F (-5.6 C)
Relative Humidity: 77%
Pressure (altimeter): 30.13 in. Hg (1020 hPa)
ob: KMWO 030255Z AUTO 00000KT 10SM CLR M02/M06 A3013 RMK AO2 T10221056
cycle: 3

Station Type Date Time Source
KMWO TAF UTC NOAA

Error!

Example: see airport list